sensor_id;sensor_type;location;lat;lon;timestamp;P1;durP1;ratioP1;P2;durP2;ratioP2
59008;SDS011;44794;42.652;23.318;2023-01-19T06:05:14;35.15;;;5.18;;
59008;SDS011;44794;42.652;23.318;2023-01-19T06:07:39;41.70;;;5.65;;
59008;SDS011;44794;42.652;23.318;2023-01-19T06:10:05;41.30;;;5.55;;
59008;SDS011;44794;42.652;23.318;2023-01-19T06:12:31;44.97;;;5.78;;
59008;SDS011;44794;42.652;23.318;2023-01-19T06:14:57;36.30;;;5.75;;
59008;SDS011;44794;42.652;23.318;2023-01-19T06:17:22;34.15;;;5.43;;
59008;SDS011;44794;42.652;23.318;2023-01-19T06:19:47;42.65;;;5.72;;
59008;SDS011;44794;42.652;23.318;2023-01-19T06:22:13;36.50;;;5.53;;
59008;SDS011;44794;42.652;23.318;2023-01-19T06:24:39;48.53;;;6.25;;
59008;SDS011;44794;42.652;23.318;2023-01-19T06:27:04;39.88;;;5.30;;
59008;SDS011;44794;42.652;23.318;2023-01-19T06:29:30;36.70;;;5.85;;
59008;SDS011;44794;42.652;23.318;2023-01-19T06:31:56;38.83;;;5.90;;
59008;SDS011;44794;42.652;23.318;2023-01-19T06:34:22;54.20;;;6.60;;
59008;SDS011;44794;42.652;23.318;2023-01-19T06:36:51;47.90;;;7.00;;
59008;SDS011;44794;42.652;23.318;2023-01-19T06:39:16;41.42;;;5.63;;
59008;SDS011;44794;42.652;23.318;2023-01-19T06:41:41;46.13;;;6.40;;
59008;SDS011;44794;42.652;23.318;2023-01-19T06:44:07;47.15;;;6.55;;
59008;SDS011;44794;42.652;23.318;2023-01-19T06:46:33;44.92;;;6.00;;
59008;SDS011;44794;42.652;23.318;2023-01-19T06:48:59;53.28;;;6.10;;
59008;SDS011;44794;42.652;23.318;2023-01-19T06:51:25;36.90;;;6.30;;
59008;SDS011;44794;42.652;23.318;2023-01-19T06:53:51;41.00;;;5.72;;
59008;SDS011;44794;42.652;23.318;2023-01-19T06:56:16;40.58;;;6.32;;
59008;SDS011;44794;42.652;23.318;2023-01-19T06:58:42;33.28;;;5.85;;
59008;SDS011;44794;42.652;23.318;2023-01-19T07:01:07;35.63;;;4.93;;
59008;SDS011;44794;42.652;23.318;2023-01-19T07:03:34;41.88;;;5.82;;
59008;SDS011;44794;42.652;23.318;2023-01-19T07:06:00;44.97;;;6.13;;
59008;SDS011;44794;42.652;23.318;2023-01-19T07:08:31;36.08;;;5.78;;
59008;SDS011;44794;42.652;23.318;2023-01-19T07:11:00;51.75;;;6.35;;
59008;SDS011;44794;42.652;23.318;2023-01-19T07:13:30;40.05;;;5.80;;
59008;SDS011;44794;42.652;23.318;2023-01-19T07:15:55;47.85;;;6.53;;
59008;SDS011;44794;42.652;23.318;2023-01-19T07:18:21;49.97;;;6.03;;
59008;SDS011;44794;42.652;23.318;2023-01-19T07:20:46;42.90;;;6.05;;
59008;SDS011;44794;42.652;23.318;2023-01-19T07:23:13;45.95;;;6.00;;
59008;SDS011;44794;42.652;23.318;2023-01-19T07:25:45;37.97;;;5.65;;
59008;SDS011;44794;42.652;23.318;2023-01-19T07:28:10;42.47;;;5.75;;
59008;SDS011;44794;42.652;23.318;2023-01-19T07:30:39;40.15;;;5.85;;
59008;SDS011;44794;42.652;23.318;2023-01-19T07:33:05;48.35;;;6.10;;
59008;SDS011;44794;42.652;23.318;2023-01-19T07:35:30;38.70;;;6.72;;
59008;SDS011;44794;42.652;23.318;2023-01-19T07:37:57;35.90;;;5.97;;
59008;SDS011;44794;42.652;23.318;2023-01-19T07:40:23;42.60;;;6.22;;
59008;SDS011;44794;42.652;23.318;2023-01-19T07:42:48;47.45;;;5.65;;
59008;SDS011;44794;42.652;23.318;2023-01-19T07:45:18;46.70;;;5.55;;
59008;SDS011;44794;42.652;23.318;2023-01-19T07:47:45;41.00;;;6.03;;
59008;SDS011;44794;42.652;23.318;2023-01-19T07:50:13;48.85;;;6.03;;
59008;SDS011;44794;42.652;23.318;2023-01-19T07:52:40;46.38;;;7.97;;
59008;SDS011;44794;42.652;23.318;2023-01-19T07:55:06;50.80;;;7.50;;
59008;SDS011;44794;42.652;23.318;2023-01-19T07:57:32;47.22;;;6.75;;
59008;SDS011;44794;42.652;23.318;2023-01-19T07:59:57;51.42;;;7.80;;
59008;SDS011;44794;42.652;23.318;2023-01-19T08:02:23;37.15;;;6.32;;
59008;SDS011;44794;42.652;23.318;2023-01-19T08:04:49;47.33;;;6.40;;
59008;SDS011;44794;42.652;23.318;2023-01-19T08:07:14;44.53;;;6.22;;
59008;SDS011;44794;42.652;23.318;2023-01-19T08:09:40;48.65;;;7.50;;
59008;SDS011;44794;42.652;23.318;2023-01-19T08:12:05;46.22;;;7.25;;
59008;SDS011;44794;42.652;23.318;2023-01-19T08:14:31;48.25;;;6.35;;
59008;SDS011;44794;42.652;23.318;2023-01-19T08:17:00;47.97;;;6.78;;
59008;SDS011;44794;42.652;23.318;2023-01-19T08:19:26;57.90;;;8.02;;
59008;SDS011;44794;42.652;23.318;2023-01-19T08:21:52;44.03;;;6.25;;
59008;SDS011;44794;42.652;23.318;2023-01-19T08:24:18;51.20;;;6.43;;
59008;SDS011;44794;42.652;23.318;2023-01-19T08:26:45;52.25;;;7.30;;
59008;SDS011;44794;42.652;23.318;2023-01-19T08:29:11;48.72;;;7.28;;
59008;SDS011;44794;42.652;23.318;2023-01-19T08:31:37;54.88;;;7.88;;
59008;SDS011;44794;42.652;23.318;2023-01-19T08:34:03;57.50;;;7.63;;
59008;SDS011;44794;42.652;23.318;2023-01-19T08:36:29;45.50;;;6.60;;
59008;SDS011;44794;42.652;23.318;2023-01-19T08:38:54;44.45;;;6.60;;
59008;SDS011;44794;42.652;23.318;2023-01-19T08:41:20;51.53;;;7.55;;
59008;SDS011;44794;42.652;23.318;2023-01-19T08:43:46;35.25;;;5.88;;
59008;SDS011;44794;42.652;23.318;2023-01-19T08:46:12;45.55;;;6.32;;
59008;SDS011;44794;42.652;23.318;2023-01-19T08:48:41;41.67;;;6.13;;
59008;SDS011;44794;42.652;23.318;2023-01-19T08:51:09;54.72;;;7.00;;
59008;SDS011;44794;42.652;23.318;2023-01-19T08:53:36;47.38;;;7.32;;
59008;SDS011;44794;42.652;23.318;2023-01-19T08:56:02;48.47;;;6.60;;
59008;SDS011;44794;42.652;23.318;2023-01-19T08:58:27;39.80;;;5.68;;
59008;SDS011;44794;42.652;23.318;2023-01-19T09:00:53;52.38;;;6.22;;
59008;SDS011;44794;42.652;23.318;2023-01-19T09:03:19;39.67;;;5.72;;
59008;SDS011;44794;42.652;23.318;2023-01-19T09:05:47;38.08;;;5.47;;
59008;SDS011;44794;42.652;23.318;2023-01-19T09:08:13;35.20;;;4.95;;
59008;SDS011;44794;42.652;23.318;2023-01-19T09:10:47;47.20;;;6.43;;
59008;SDS011;44794;42.652;23.318;2023-01-19T09:13:14;35.50;;;5.40;;
59008;SDS011;44794;42.652;23.318;2023-01-19T09:15:40;37.47;;;5.43;;
59008;SDS011;44794;42.652;23.318;2023-01-19T09:18:08;43.78;;;5.65;;
59008;SDS011;44794;42.652;23.318;2023-01-19T09:20:36;40.47;;;5.68;;
59008;SDS011;44794;42.652;23.318;2023-01-19T09:23:03;32.00;;;5.25;;
59008;SDS011;44794;42.652;23.318;2023-01-19T09:25:29;37.55;;;5.50;;
59008;SDS011;44794;42.652;23.318;2023-01-19T09:27:55;39.17;;;4.90;;
59008;SDS011;44794;42.652;23.318;2023-01-19T09:30:20;32.28;;;5.10;;
59008;SDS011;44794;42.652;23.318;2023-01-19T09:32:46;32.00;;;4.60;;
59008;SDS011;44794;42.652;23.318;2023-01-19T09:35:11;33.42;;;5.18;;
59008;SDS011;44794;42.652;23.318;2023-01-19T09:37:37;29.30;;;4.20;;
59008;SDS011;44794;42.652;23.318;2023-01-19T09:40:04;34.17;;;3.85;;
59008;SDS011;44794;42.652;23.318;2023-01-19T09:45:18;37.72;;;4.55;;
59008;SDS011;44794;42.652;23.318;2023-01-19T09:48:00;35.38;;;5.25;;
59008;SDS011;44794;42.652;23.318;2023-01-19T09:50:33;28.23;;;4.40;;
59008;SDS011;44794;42.652;23.318;2023-01-19T09:53:09;27.48;;;4.85;;
59008;SDS011;44794;42.652;23.318;2023-01-19T09:55:41;26.80;;;4.05;;
59008;SDS011;44794;42.652;23.318;2023-01-19T09:58:13;31.45;;;4.63;;
59008;SDS011;44794;42.652;23.318;2023-01-19T10:00:43;21.33;;;3.70;;
59008;SDS011;44794;42.652;23.318;2023-01-19T10:03:16;38.50;;;4.47;;
59008;SDS011;44794;42.652;23.318;2023-01-19T10:05:47;28.23;;;4.20;;
59008;SDS011;44794;42.652;23.318;2023-01-19T10:10:54;23.05;;;3.90;;
59008;SDS011;44794;42.652;23.318;2023-01-19T10:18:56;25.35;;;3.55;;
59008;SDS011;44794;42.652;23.318;2023-01-19T10:21:27;16.65;;;3.38;;
59008;SDS011;44794;42.652;23.318;2023-01-19T10:24:03;23.23;;;3.60;;
59008;SDS011;44794;42.652;23.318;2023-01-19T10:26:38;27.47;;;4.03;;
59008;SDS011;44794;42.652;23.318;2023-01-19T10:29:30;30.95;;;4.05;;
59008;SDS011;44794;42.652;23.318;2023-01-19T10:32:05;23.73;;;3.30;;
59008;SDS011;44794;42.652;23.318;2023-01-19T10:34:33;24.30;;;3.95;;
59008;SDS011;44794;42.652;23.318;2023-01-19T10:37:14;27.23;;;3.72;;
59008;SDS011;44794;42.652;23.318;2023-01-19T10:39:46;25.55;;;3.50;;
59008;SDS011;44794;42.652;23.318;2023-01-19T10:42:17;23.70;;;3.92;;
59008;SDS011;44794;42.652;23.318;2023-01-19T10:44:44;20.50;;;3.45;;
59008;SDS011;44794;42.652;23.318;2023-01-19T10:47:19;27.10;;;3.85;;
59008;SDS011;44794;42.652;23.318;2023-01-19T10:49:48;24.88;;;3.60;;
59008;SDS011;44794;42.652;23.318;2023-01-19T10:54:54;19.73;;;3.22;;
59008;SDS011;44794;42.652;23.318;2023-01-19T10:57:30;25.27;;;3.67;;
59008;SDS011;44794;42.652;23.318;2023-01-19T11:00:00;25.40;;;3.78;;
59008;SDS011;44794;42.652;23.318;2023-01-19T11:02:27;20.08;;;3.33;;
59008;SDS011;44794;42.652;23.318;2023-01-19T11:04:55;22.15;;;3.63;;
59008;SDS011;44794;42.652;23.318;2023-01-19T11:10:10;21.63;;;3.83;;
59008;SDS011;44794;42.652;23.318;2023-01-19T11:12:39;23.02;;;3.70;;
59008;SDS011;44794;42.652;23.318;2023-01-19T11:15:15;25.35;;;3.35;;
59008;SDS011;44794;42.652;23.318;2023-01-19T11:17:45;23.15;;;3.95;;
59008;SDS011;44794;42.652;23.318;2023-01-19T11:20:18;24.60;;;3.47;;
59008;SDS011;44794;42.652;23.318;2023-01-19T11:26:12;24.23;;;3.63;;
59008;SDS011;44794;42.652;23.318;2023-01-19T11:28:49;19.38;;;3.20;;
59008;SDS011;44794;42.652;23.318;2023-01-19T11:31:26;20.35;;;3.28;;
59008;SDS011;44794;42.652;23.318;2023-01-19T11:33:58;19.42;;;3.10;;
59008;SDS011;44794;42.652;23.318;2023-01-19T11:36:54;19.88;;;3.42;;
59008;SDS011;44794;42.652;23.318;2023-01-19T11:39:55;17.13;;;2.80;;
59008;SDS011;44794;42.652;23.318;2023-01-19T11:42:22;20.85;;;3.05;;
59008;SDS011;44794;42.652;23.318;2023-01-19T11:45:03;25.15;;;3.58;;
59008;SDS011;44794;42.652;23.318;2023-01-19T11:47:38;25.23;;;3.83;;
59008;SDS011;44794;42.652;23.318;2023-01-19T11:56:30;21.77;;;3.15;;
59008;SDS011;44794;42.652;23.318;2023-01-19T11:58:36;17.35;;;3.35;;
59008;SDS011;44794;42.652;23.318;2023-01-19T12:01:10;18.75;;;2.90;;
59008;SDS011;44794;42.652;23.318;2023-01-19T12:03:56;17.05;;;3.13;;
59008;SDS011;44794;42.652;23.318;2023-01-19T12:06:28;13.73;;;2.58;;
59008;SDS011;44794;42.652;23.318;2023-01-19T12:09:33;16.95;;;2.92;;
59008;SDS011;44794;42.652;23.318;2023-01-19T12:11:56;18.60;;;2.95;;
59008;SDS011;44794;42.652;23.318;2023-01-19T12:14:30;14.18;;;2.75;;
59008;SDS011;44794;42.652;23.318;2023-01-19T12:17:03;11.60;;;2.63;;
59008;SDS011;44794;42.652;23.318;2023-01-19T12:19:52;13.05;;;2.50;;
59008;SDS011;44794;42.652;23.318;2023-01-19T12:22:23;16.15;;;2.55;;
59008;SDS011;44794;42.652;23.318;2023-01-19T12:24:57;18.63;;;3.10;;
59008;SDS011;44794;42.652;23.318;2023-01-19T12:27:40;17.25;;;2.65;;
59008;SDS011;44794;42.652;23.318;2023-01-19T12:30:29;13.57;;;2.40;;
59008;SDS011;44794;42.652;23.318;2023-01-19T12:39:20;14.73;;;2.55;;
59008;SDS011;44794;42.652;23.318;2023-01-19T12:41:47;15.30;;;2.80;;
59008;SDS011;44794;42.652;23.318;2023-01-19T12:44:28;15.07;;;2.60;;
59008;SDS011;44794;42.652;23.318;2023-01-19T12:46:57;16.77;;;2.88;;
59008;SDS011;44794;42.652;23.318;2023-01-19T12:49:38;11.20;;;2.50;;
59008;SDS011;44794;42.652;23.318;2023-01-19T12:52:24;19.83;;;2.92;;
59008;SDS011;44794;42.652;23.318;2023-01-19T13:03:00;20.27;;;3.60;;
59008;SDS011;44794;42.652;23.318;2023-01-19T13:18:42;12.13;;;2.70;;
59008;SDS011;44794;42.652;23.318;2023-01-19T13:21:12;10.75;;;2.35;;
59008;SDS011;44794;42.652;23.318;2023-01-19T13:23:51;14.20;;;2.45;;
59008;SDS011;44794;42.652;23.318;2023-01-19T13:26:22;16.52;;;2.35;;
59008;SDS011;44794;42.652;23.318;2023-01-19T13:28:54;10.85;;;2.33;;
59008;SDS011;44794;42.652;23.318;2023-01-19T13:31:23;14.68;;;2.20;;
59008;SDS011;44794;42.652;23.318;2023-01-19T13:33:53;10.18;;;2.10;;
59008;SDS011;44794;42.652;23.318;2023-01-19T13:36:26;15.13;;;1.80;;
59008;SDS011;44794;42.652;23.318;2023-01-19T13:41:36;13.43;;;2.30;;
59008;SDS011;44794;42.652;23.318;2023-01-19T13:44:06;13.13;;;2.40;;
59008;SDS011;44794;42.652;23.318;2023-01-19T13:46:37;15.18;;;2.22;;
59008;SDS011;44794;42.652;23.318;2023-01-19T13:49:12;10.82;;;2.30;;
59008;SDS011;44794;42.652;23.318;2023-01-19T13:51:43;14.07;;;1.95;;
59008;SDS011;44794;42.652;23.318;2023-01-19T13:54:13;11.52;;;2.05;;
59008;SDS011;44794;42.652;23.318;2023-01-19T13:56:45;12.77;;;2.15;;
59008;SDS011;44794;42.652;23.318;2023-01-19T13:59:11;14.77;;;3.10;;
59008;SDS011;44794;42.652;23.318;2023-01-19T14:01:39;12.70;;;2.53;;
59008;SDS011;44794;42.652;23.318;2023-01-19T14:04:28;8.18;;;2.20;;
59008;SDS011;44794;42.652;23.318;2023-01-19T14:06:56;7.20;;;1.83;;
59008;SDS011;44794;42.652;23.318;2023-01-19T14:09:24;11.40;;;2.38;;
59008;SDS011;44794;42.652;23.318;2023-01-19T14:12:07;10.07;;;1.80;;
59008;SDS011;44794;42.652;23.318;2023-01-19T14:14:34;10.10;;;2.08;;
59008;SDS011;44794;42.652;23.318;2023-01-19T14:17:00;14.43;;;2.15;;
59008;SDS011;44794;42.652;23.318;2023-01-19T14:19:26;9.98;;;2.08;;
59008;SDS011;44794;42.652;23.318;2023-01-19T14:22:02;12.45;;;1.73;;
59008;SDS011;44794;42.652;23.318;2023-01-19T14:24:30;8.23;;;1.83;;
59008;SDS011;44794;42.652;23.318;2023-01-19T14:30:16;9.75;;;1.98;;
59008;SDS011;44794;42.652;23.318;2023-01-19T14:32:46;12.93;;;2.15;;
59008;SDS011;44794;42.652;23.318;2023-01-19T14:35:23;11.05;;;2.00;;
59008;SDS011;44794;42.652;23.318;2023-01-19T14:37:49;11.45;;;1.88;;
59008;SDS011;44794;42.652;23.318;2023-01-19T14:40:22;10.80;;;1.90;;
59008;SDS011;44794;42.652;23.318;2023-01-19T14:42:59;11.45;;;2.05;;
59008;SDS011;44794;42.652;23.318;2023-01-19T14:48:19;10.30;;;2.20;;
59008;SDS011;44794;42.652;23.318;2023-01-19T14:50:47;11.23;;;2.22;;
59008;SDS011;44794;42.652;23.318;2023-01-19T14:53:23;9.15;;;1.95;;
59008;SDS011;44794;42.652;23.318;2023-01-19T14:56:02;10.77;;;2.03;;
59008;SDS011;44794;42.652;23.318;2023-01-19T14:58:31;8.98;;;1.83;;
59008;SDS011;44794;42.652;23.318;2023-01-19T15:00:58;12.70;;;2.10;;
59008;SDS011;44794;42.652;23.318;2023-01-19T15:03:24;10.70;;;2.60;;
59008;SDS011;44794;42.652;23.318;2023-01-19T15:05:51;12.57;;;2.40;;
59008;SDS011;44794;42.652;23.318;2023-01-19T15:08:27;9.32;;;2.15;;
59008;SDS011;44794;42.652;23.318;2023-01-19T15:11:00;10.30;;;2.33;;
59008;SDS011;44794;42.652;23.318;2023-01-19T15:13:47;11.70;;;1.83;;
59008;SDS011;44794;42.652;23.318;2023-01-19T15:16:13;9.68;;;1.98;;
59008;SDS011;44794;42.652;23.318;2023-01-19T15:18:39;9.30;;;2.38;;
59008;SDS011;44794;42.652;23.318;2023-01-19T15:21:07;12.82;;;2.20;;
59008;SDS011;44794;42.652;23.318;2023-01-19T15:23:39;8.40;;;1.63;;
59008;SDS011;44794;42.652;23.318;2023-01-19T15:26:05;10.05;;;1.90;;
59008;SDS011;44794;42.652;23.318;2023-01-19T15:28:37;9.43;;;2.08;;
59008;SDS011;44794;42.652;23.318;2023-01-19T15:31:02;9.60;;;2.08;;
59008;SDS011;44794;42.652;23.318;2023-01-19T15:33:28;7.28;;;2.42;;
59008;SDS011;44794;42.652;23.318;2023-01-19T15:35:54;11.93;;;2.58;;
59008;SDS011;44794;42.652;23.318;2023-01-19T15:38:20;11.02;;;2.13;;
59008;SDS011;44794;42.652;23.318;2023-01-19T15:40:47;10.43;;;2.40;;
59008;SDS011;44794;42.652;23.318;2023-01-19T15:43:13;11.63;;;2.30;;
59008;SDS011;44794;42.652;23.318;2023-01-19T15:45:42;8.68;;;2.08;;
59008;SDS011;44794;42.652;23.318;2023-01-19T15:48:12;9.40;;;1.75;;
59008;SDS011;44794;42.652;23.318;2023-01-19T15:50:42;10.07;;;1.80;;
59008;SDS011;44794;42.652;23.318;2023-01-19T15:53:15;10.57;;;2.70;;
59008;SDS011;44794;42.652;23.318;2023-01-19T15:55:47;9.45;;;1.95;;
59008;SDS011;44794;42.652;23.318;2023-01-19T15:58:14;11.23;;;1.90;;
59008;SDS011;44794;42.652;23.318;2023-01-19T16:00:40;7.72;;;2.45;;
59008;SDS011;44794;42.652;23.318;2023-01-19T16:03:06;7.63;;;1.95;;
59008;SDS011;44794;42.652;23.318;2023-01-19T16:05:31;6.50;;;1.70;;
59008;SDS011;44794;42.652;23.318;2023-01-19T16:07:57;10.48;;;2.10;;
59008;SDS011;44794;42.652;23.318;2023-01-19T16:10:22;9.60;;;2.25;;
59008;SDS011;44794;42.652;23.318;2023-01-19T16:12:48;11.20;;;2.20;;
59008;SDS011;44794;42.652;23.318;2023-01-19T16:15:14;7.50;;;2.03;;
59008;SDS011;44794;42.652;23.318;2023-01-19T16:17:40;10.95;;;1.70;;
59008;SDS011;44794;42.652;23.318;2023-01-19T16:20:06;6.35;;;1.90;;
59008;SDS011;44794;42.652;23.318;2023-01-19T16:22:32;7.90;;;2.00;;
59008;SDS011;44794;42.652;23.318;2023-01-19T16:24:58;9.60;;;1.70;;
59008;SDS011;44794;42.652;23.318;2023-01-19T16:27:24;6.00;;;1.98;;
59008;SDS011;44794;42.652;23.318;2023-01-19T16:29:50;7.63;;;2.03;;
59008;SDS011;44794;42.652;23.318;2023-01-19T16:32:15;7.70;;;2.13;;
59008;SDS011;44794;42.652;23.318;2023-01-19T16:34:41;6.05;;;1.60;;
59008;SDS011;44794;42.652;23.318;2023-01-19T16:37:07;6.25;;;1.67;;
59008;SDS011;44794;42.652;23.318;2023-01-19T16:39:32;4.03;;;2.03;;
59008;SDS011;44794;42.652;23.318;2023-01-19T16:41:57;4.55;;;2.03;;
59008;SDS011;44794;42.652;23.318;2023-01-19T16:44:23;5.30;;;2.35;;
59008;SDS011;44794;42.652;23.318;2023-01-19T16:46:56;6.00;;;2.35;;
59008;SDS011;44794;42.652;23.318;2023-01-19T16:49:23;6.28;;;2.40;;
59008;SDS011;44794;42.652;23.318;2023-01-19T16:51:51;7.55;;;1.90;;
59008;SDS011;44794;42.652;23.318;2023-01-19T16:54:22;5.93;;;1.80;;
59008;SDS011;44794;42.652;23.318;2023-01-19T16:56:52;4.78;;;2.10;;
59008;SDS011;44794;42.652;23.318;2023-01-19T16:59:19;7.07;;;1.90;;
59008;SDS011;44794;42.652;23.318;2023-01-19T17:01:46;10.30;;;3.30;;
59008;SDS011;44794;42.652;23.318;2023-01-19T17:04:14;7.75;;;2.50;;
59008;SDS011;44794;42.652;23.318;2023-01-19T17:06:40;7.53;;;2.10;;
59008;SDS011;44794;42.652;23.318;2023-01-19T17:09:06;12.00;;;2.40;;
59008;SDS011;44794;42.652;23.318;2023-01-19T17:11:33;7.40;;;2.00;;
59008;SDS011;44794;42.652;23.318;2023-01-19T17:14:04;8.48;;;2.08;;
59008;SDS011;44794;42.652;23.318;2023-01-19T17:16:34;4.25;;;1.98;;
59008;SDS011;44794;42.652;23.318;2023-01-19T17:19:01;5.30;;;2.00;;
59008;SDS011;44794;42.652;23.318;2023-01-19T17:21:29;4.72;;;1.80;;
59008;SDS011;44794;42.652;23.318;2023-01-19T17:23:55;3.75;;;2.42;;
59008;SDS011;44794;42.652;23.318;2023-01-19T17:26:21;5.00;;;2.30;;
